sensor_id;sensor_type;location;lat;lon;timestamp;temperature;humidity
19536;HTU21D;9913;51.168;4.124;2023-06-14T00:01:03;19.79;97.73
19536;HTU21D;9913;51.168;4.124;2023-06-14T00:03:33;19.83;97.52
19536;HTU21D;9913;51.168;4.124;2023-06-14T00:06:01;19.48;97.05
19536;HTU21D;9913;51.168;4.124;2023-06-14T00:08:29;19.57;97.03
19536;HTU21D;9913;51.168;4.124;2023-06-14T00:10:59;19.48;96.07
19536;HTU21D;9913;51.168;4.124;2023-06-14T00:13:27;19.56;96.05
19536;HTU21D;9913;51.168;4.124;2023-06-14T00:15:56;19.62;97.42
19536;HTU21D;9913;51.168;4.124;2023-06-14T00:18:24;19.52;97.37
19536;HTU21D;9913;51.168;4.124;2023-06-14T00:20:56;19.42;97.15
19536;HTU21D;9913;51.168;4.124;2023-06-14T00:23:25;19.40;97.03
19536;HTU21D;9913;51.168;4.124;2023-06-14T00:25:53;19.43;96.62
19536;HTU21D;9913;51.168;4.124;2023-06-14T00:28:23;19.41;97.14
19536;HTU21D;9913;51.168;4.124;2023-06-14T00:30:51;19.46;96.75
19536;HTU21D;9913;51.168;4.124;2023-06-14T00:33:20;19.46;97.34
19536;HTU21D;9913;51.168;4.124;2023-06-14T00:35:49;19.52;97.28
19536;HTU21D;9913;51.168;4.124;2023-06-14T00:38:19;19.42;97.65
19536;HTU21D;9913;51.168;4.124;2023-06-14T00:40:48;19.22;97.39
19536;HTU21D;9913;51.168;4.124;2023-06-14T00:43:16;19.52;98.65
19536;HTU21D;9913;51.168;4.124;2023-06-14T00:45:46;19.37;98.20
19536;HTU21D;9913;51.168;4.124;2023-06-14T00:48:17;19.32;98.08
19536;HTU21D;9913;51.168;4.124;2023-06-14T00:50:46;19.14;98.33
19536;HTU21D;9913;51.168;4.124;2023-06-14T00:53:16;19.15;98.06
19536;HTU21D;9913;51.168;4.124;2023-06-14T00:55:45;19.01;98.05
19536;HTU21D;9913;51.168;4.124;2023-06-14T00:58:16;19.12;99.43
19536;HTU21D;9913;51.168;4.124;2023-06-14T01:00:46;19.20;99.90
19536;HTU21D;9913;51.168;4.124;2023-06-14T01:03:15;19.11;98.76
19536;HTU21D;9913;51.168;4.124;2023-06-14T01:05:46;19.07;99.00
19536;HTU21D;9913;51.168;4.124;2023-06-14T01:08:23;18.89;99.02
19536;HTU21D;9913;51.168;4.124;2023-06-14T01:10:59;19.14;97.83
19536;HTU21D;9913;51.168;4.124;2023-06-14T01:13:33;19.32;97.16
19536;HTU21D;9913;51.168;4.124;2023-06-14T01:16:05;19.22;97.32
19536;HTU21D;9913;51.168;4.124;2023-06-14T01:18:35;19.18;97.02
19536;HTU21D;9913;51.168;4.124;2023-06-14T01:21:04;19.01;97.61
19536;HTU21D;9913;51.168;4.124;2023-06-14T01:23:34;19.12;98.25
19536;HTU21D;9913;51.168;4.124;2023-06-14T01:26:03;19.16;96.78
19536;HTU21D;9913;51.168;4.124;2023-06-14T01:28:32;19.16;96.66
19536;HTU21D;9913;51.168;4.124;2023-06-14T01:31:02;19.12;95.84
19536;HTU21D;9913;51.168;4.124;2023-06-14T01:33:33;18.80;96.36
19536;HTU21D;9913;51.168;4.124;2023-06-14T01:36:05;18.95;96.80
19536;HTU21D;9913;51.168;4.124;2023-06-14T01:38:37;18.91;95.84
19536;HTU21D;9913;51.168;4.124;2023-06-14T01:41:06;18.95;95.66
19536;HTU21D;9913;51.168;4.124;2023-06-14T01:43:34;19.00;97.10
19536;HTU21D;9913;51.168;4.124;2023-06-14T01:46:05;18.98;95.97
19536;HTU21D;9913;51.168;4.124;2023-06-14T01:48:34;18.83;97.33
19536;HTU21D;9913;51.168;4.124;2023-06-14T01:51:03;18.74;95.78
19536;HTU21D;9913;51.168;4.124;2023-06-14T01:53:32;18.67;96.83
19536;HTU21D;9913;51.168;4.124;2023-06-14T01:56:01;18.63;97.03
19536;HTU21D;9913;51.168;4.124;2023-06-14T01:58:31;18.63;96.23
19536;HTU21D;9913;51.168;4.124;2023-06-14T02:01:00;18.68;96.33
19536;HTU21D;9913;51.168;4.124;2023-06-14T02:03:29;18.56;95.65
19536;HTU21D;9913;51.168;4.124;2023-06-14T02:05:58;18.72;95.83
19536;HTU21D;9913;51.168;4.124;2023-06-14T02:08:27;18.69;94.77
19536;HTU21D;9913;51.168;4.124;2023-06-14T02:10:55;18.62;95.74
19536;HTU21D;9913;51.168;4.124;2023-06-14T02:13:25;18.65;95.61
19536;HTU21D;9913;51.168;4.124;2023-06-14T02:15:53;18.66;94.89
19536;HTU21D;9913;51.168;4.124;2023-06-14T02:18:22;18.58;95.82
19536;HTU21D;9913;51.168;4.124;2023-06-14T02:20:51;18.68;95.51
19536;HTU21D;9913;51.168;4.124;2023-06-14T02:23:19;18.73;93.29
19536;HTU21D;9913;51.168;4.124;2023-06-14T02:25:48;18.76;93.82
19536;HTU21D;9913;51.168;4.124;2023-06-14T02:28:16;18.58;95.49
19536;HTU21D;9913;51.168;4.124;2023-06-14T02:30:46;18.66;93.72
19536;HTU21D;9913;51.168;4.124;2023-06-14T02:33:15;18.80;93.01
19536;HTU21D;9913;51.168;4.124;2023-06-14T02:35:44;18.79;92.66
19536;HTU21D;9913;51.168;4.124;2023-06-14T02:38:13;18.84;91.42
19536;HTU21D;9913;51.168;4.124;2023-06-14T02:40:41;18.76;93.16
19536;HTU21D;9913;51.168;4.124;2023-06-14T02:43:10;18.71;92.10
19536;HTU21D;9913;51.168;4.124;2023-06-14T02:45:38;18.71;91.37
19536;HTU21D;9913;51.168;4.124;2023-06-14T02:48:09;18.65;90.49
19536;HTU21D;9913;51.168;4.124;2023-06-14T02:50:40;18.77;89.84
19536;HTU21D;9913;51.168;4.124;2023-06-14T02:53:09;18.71;91.10
19536;HTU21D;9913;51.168;4.124;2023-06-14T02:55:37;18.71;91.76
19536;HTU21D;9913;51.168;4.124;2023-06-14T02:58:08;18.70;90.45
19536;HTU21D;9913;51.168;4.124;2023-06-14T03:00:37;18.66;88.89
19536;HTU21D;9913;51.168;4.124;2023-06-14T03:03:06;18.64;89.51
19536;HTU21D;9913;51.168;4.124;2023-06-14T03:05:45;18.62;90.47
19536;HTU21D;9913;51.168;4.124;2023-06-14T03:08:16;18.71;89.21
19536;HTU21D;9913;51.168;4.124;2023-06-14T03:10:50;18.72;88.41
19536;HTU21D;9913;51.168;4.124;2023-06-14T03:13:19;18.72;88.09
19536;HTU21D;9913;51.168;4.124;2023-06-14T03:15:49;18.68;88.41
19536;HTU21D;9913;51.168;4.124;2023-06-14T03:18:20;18.59;87.66
19536;HTU21D;9913;51.168;4.124;2023-06-14T03:20:56;18.54;88.38
19536;HTU21D;9913;51.168;4.124;2023-06-14T03:23:27;18.42;90.13
19536;HTU21D;9913;51.168;4.124;2023-06-14T03:25:56;18.35;89.91
19536;HTU21D;9913;51.168;4.124;2023-06-14T03:28:24;18.27;89.66
19536;HTU21D;9913;51.168;4.124;2023-06-14T03:30:54;18.32;91.55
19536;HTU21D;9913;51.168;4.124;2023-06-14T03:33:24;18.13;91.59
19536;HTU21D;9913;51.168;4.124;2023-06-14T03:35:56;18.06;90.51
19536;HTU21D;9913;51.168;4.124;2023-06-14T03:38:25;18.07;90.65
19536;HTU21D;9913;51.168;4.124;2023-06-14T03:40:54;18.02;89.55
19536;HTU21D;9913;51.168;4.124;2023-06-14T03:43:23;18.00;90.82
19536;HTU21D;9913;51.168;4.124;2023-06-14T03:45:53;18.08;91.32
19536;HTU21D;9913;51.168;4.124;2023-06-14T03:48:23;18.10;89.24
19536;HTU21D;9913;51.168;4.124;2023-06-14T03:50:52;18.08;88.19
19536;HTU21D;9913;51.168;4.124;2023-06-14T03:53:27;17.95;88.40
19536;HTU21D;9913;51.168;4.124;2023-06-14T03:55:57;18.20;87.28
19536;HTU21D;9913;51.168;4.124;2023-06-14T03:58:36;18.15;86.68
19536;HTU21D;9913;51.168;4.124;2023-06-14T04:01:06;18.14;87.05
19536;HTU21D;9913;51.168;4.124;2023-06-14T04:03:34;18.28;87.63
19536;HTU21D;9913;51.168;4.124;2023-06-14T04:06:04;18.13;87.17
19536;HTU21D;9913;51.168;4.124;2023-06-14T04:08:34;18.13;86.56
19536;HTU21D;9913;51.168;4.124;2023-06-14T04:11:02;18.43;85.48
19536;HTU21D;9913;51.168;4.124;2023-06-14T04:13:31;18.34;88.00
19536;HTU21D;9913;51.168;4.124;2023-06-14T04:16:02;18.37;86.80
19536;HTU21D;9913;51.168;4.124;2023-06-14T04:18:34;18.61;85.12
19536;HTU21D;9913;51.168;4.124;2023-06-14T04:21:02;18.44;85.23
19536;HTU21D;9913;51.168;4.124;2023-06-14T04:23:31;18.32;85.32
19536;HTU21D;9913;51.168;4.124;2023-06-14T04:26:02;18.43;85.75
19536;HTU21D;9913;51.168;4.124;2023-06-14T04:28:31;18.32;87.44
19536;HTU21D;9913;51.168;4.124;2023-06-14T04:31:09;18.38;87.49
19536;HTU21D;9913;51.168;4.124;2023-06-14T04:33:39;18.24;88.46
19536;HTU21D;9913;51.168;4.124;2023-06-14T04:36:14;18.40;86.66
19536;HTU21D;9913;51.168;4.124;2023-06-14T04:38:47;18.34;88.26
19536;HTU21D;9913;51.168;4.124;2023-06-14T04:41:18;18.34;87.07
19536;HTU21D;9913;51.168;4.124;2023-06-14T04:43:46;18.46;88.04
19536;HTU21D;9913;51.168;4.124;2023-06-14T04:46:16;18.46;86.90
19536;HTU21D;9913;51.168;4.124;2023-06-14T04:48:46;18.56;87.27
19536;HTU21D;9913;51.168;4.124;2023-06-14T04:51:16;18.46;87.06
19536;HTU21D;9913;51.168;4.124;2023-06-14T04:53:48;18.43;88.44
19536;HTU21D;9913;51.168;4.124;2023-06-14T04:56:19;18.37;87.07
19536;HTU21D;9913;51.168;4.124;2023-06-14T04:58:50;18.52;87.71
19536;HTU21D;9913;51.168;4.124;2023-06-14T05:01:19;18.73;87.19
19536;HTU21D;9913;51.168;4.124;2023-06-14T05:03:48;18.59;88.20
19536;HTU21D;9913;51.168;4.124;2023-06-14T05:06:17;18.39;88.33
19536;HTU21D;9913;51.168;4.124;2023-06-14T05:08:46;18.48;87.35
19536;HTU21D;9913;51.168;4.124;2023-06-14T05:11:14;18.68;88.15
19536;HTU21D;9913;51.168;4.124;2023-06-14T05:13:45;18.69;88.35
19536;HTU21D;9913;51.168;4.124;2023-06-14T05:16:13;18.69;87.31
19536;HTU21D;9913;51.168;4.124;2023-06-14T05:18:46;18.85;87.03
19536;HTU21D;9913;51.168;4.124;2023-06-14T05:21:14;19.05;85.51
19536;HTU21D;9913;51.168;4.124;2023-06-14T05:23:45;18.95;87.00
19536;HTU21D;9913;51.168;4.124;2023-06-14T05:26:13;18.89;86.47
19536;HTU21D;9913;51.168;4.124;2023-06-14T05:28:42;18.87;86.50
19536;HTU21D;9913;51.168;4.124;2023-06-14T05:31:11;19.10;86.80
19536;HTU21D;9913;51.168;4.124;2023-06-14T05:33:40;19.09;86.93
19536;HTU21D;9913;51.168;4.124;2023-06-14T05:36:08;19.23;87.39
19536;HTU21D;9913;51.168;4.124;2023-06-14T05:38:37;19.27;86.84
19536;HTU21D;9913;51.168;4.124;2023-06-14T05:41:05;19.31;89.18
19536;HTU21D;9913;51.168;4.124;2023-06-14T05:43:34;19.23;87.53
19536;HTU21D;9913;51.168;4.124;2023-06-14T05:46:02;19.33;88.85
19536;HTU21D;9913;51.168;4.124;2023-06-14T05:48:32;19.35;85.87
19536;HTU21D;9913;51.168;4.124;2023-06-14T05:51:00;19.45;87.10
19536;HTU21D;9913;51.168;4.124;2023-06-14T05:53:29;19.56;85.57
19536;HTU21D;9913;51.168;4.124;2023-06-14T05:55:57;19.54;87.42
19536;HTU21D;9913;51.168;4.124;2023-06-14T05:58:25;19.65;86.93
19536;HTU21D;9913;51.168;4.124;2023-06-14T06:00:54;19.68;86.48
19536;HTU21D;9913;51.168;4.124;2023-06-14T06:03:22;19.66;86.51
19536;HTU21D;9913;51.168;4.124;2023-06-14T06:05:52;19.84;85.98
19536;HTU21D;9913;51.168;4.124;2023-06-14T06:08:21;19.87;85.12
19536;HTU21D;9913;51.168;4.124;2023-06-14T06:10:49;20.09;84.35
19536;HTU21D;9913;51.168;4.124;2023-06-14T06:13:18;20.19;85.87
19536;HTU21D;9913;51.168;4.124;2023-06-14T06:15:46;20.10;84.10
19536;HTU21D;9913;51.168;4.124;2023-06-14T06:18:14;20.29;84.52
19536;HTU21D;9913;51.168;4.124;2023-06-14T06:20:43;20.18;83.81
19536;HTU21D;9913;51.168;4.124;2023-06-14T06:23:13;20.36;84.81
19536;HTU21D;9913;51.168;4.124;2023-06-14T06:25:42;20.37;83.61
19536;HTU21D;9913;51.168;4.124;2023-06-14T06:28:11;20.69;81.91
19536;HTU21D;9913;51.168;4.124;2023-06-14T06:30:39;20.71;82.37
19536;HTU21D;9913;51.168;4.124;2023-06-14T06:33:07;20.92;82.70
19536;HTU21D;9913;51.168;4.124;2023-06-14T06:35:36;20.99;82.82
19536;HTU21D;9913;51.168;4.124;2023-06-14T06:38:04;21.09;83.64
19536;HTU21D;9913;51.168;4.124;2023-06-14T06:40:34;21.05;81.78
19536;HTU21D;9913;51.168;4.124;2023-06-14T06:43:03;21.01;81.97
19536;HTU21D;9913;51.168;4.124;2023-06-14T06:45:39;21.04;83.55
19536;HTU21D;9913;51.168;4.124;2023-06-14T06:48:07;21.19;82.23
19536;HTU21D;9913;51.168;4.124;2023-06-14T06:50:37;21.13;81.28
19536;HTU21D;9913;51.168;4.124;2023-06-14T06:53:05;21.30;82.01
19536;HTU21D;9913;51.168;4.124;2023-06-14T06:55:36;21.23;81.59
19536;HTU21D;9913;51.168;4.124;2023-06-14T06:58:05;21.37;81.36
19536;HTU21D;9913;51.168;4.124;2023-06-14T07:00:33;21.42;80.69
19536;HTU21D;9913;51.168;4.124;2023-06-14T07:03:02;21.54;81.43
19536;HTU21D;9913;51.168;4.124;2023-06-14T07:05:31;21.64;81.20
19536;HTU21D;9913;51.168;4.124;2023-06-14T07:08:00;21.61;80.67
19536;HTU21D;9913;51.168;4.124;2023-06-14T07:10:28;21.61;80.65
19536;HTU21D;9913;51.168;4.124;2023-06-14T07:12:58;21.79;80.55
19536;HTU21D;9913;51.168;4.124;2023-06-14T07:15:26;21.98;80.22
19536;HTU21D;9913;51.168;4.124;2023-06-14T07:17:55;22.05;80.33
19536;HTU21D;9913;51.168;4.124;2023-06-14T07:20:27;22.14;78.27
19536;HTU21D;9913;51.168;4.124;2023-06-14T07:22:55;22.13;80.96
19536;HTU21D;9913;51.168;4.124;2023-06-14T07:25:23;22.32;78.76
19536;HTU21D;9913;51.168;4.124;2023-06-14T07:27:52;22.35;78.75
19536;HTU21D;9913;51.168;4.124;2023-06-14T07:30:22;22.41;78.99
19536;HTU21D;9913;51.168;4.124;2023-06-14T07:32:53;22.53;78.80
19536;HTU21D;9913;51.168;4.124;2023-06-14T07:35:21;22.66;76.98
19536;HTU21D;9913;51.168;4.124;2023-06-14T07:37:50;22.57;78.82
19536;HTU21D;9913;51.168;4.124;2023-06-14T07:40:18;22.70;79.40
19536;HTU21D;9913;51.168;4.124;2023-06-14T07:42:46;22.92;77.97
19536;HTU21D;9913;51.168;4.124;2023-06-14T07:45:17;22.93;79.29
19536;HTU21D;9913;51.168;4.124;2023-06-14T07:47:46;22.91;78.11
19536;HTU21D;9913;51.168;4.124;2023-06-14T07:50:15;22.91;78.11
19536;HTU21D;9913;51.168;4.124;2023-06-14T07:52:44;23.15;78.56
19536;HTU21D;9913;51.168;4.124;2023-06-14T07:55:14;23.18;79.02
19536;HTU21D;9913;51.168;4.124;2023-06-14T07:57:43;23.45;79.37
19536;HTU21D;9913;51.168;4.124;2023-06-14T08:00:13;23.53;76.96
19536;HTU21D;9913;51.168;4.124;2023-06-14T08:02:44;23.29;77.62
19536;HTU21D;9913;51.168;4.124;2023-06-14T08:05:14;23.41;77.82
19536;HTU21D;9913;51.168;4.124;2023-06-14T08:07:43;23.51;78.57
19536;HTU21D;9913;51.168;4.124;2023-06-14T08:10:22;23.69;79.11
19536;HTU21D;9913;51.168;4.124;2023-06-14T08:12:51;23.67;77.47
19536;HTU21D;9913;51.168;4.124;2023-06-14T08:15:19;23.83;77.94
19536;HTU21D;9913;51.168;4.124;2023-06-14T08:17:48;23.80;76.98
19536;HTU21D;9913;51.168;4.124;2023-06-14T08:20:18;23.76;77.94
19536;HTU21D;9913;51.168;4.124;2023-06-14T08:22:47;23.83;76.15
19536;HTU21D;9913;51.168;4.124;2023-06-14T08:25:15;24.05;78.41
19536;HTU21D;9913;51.168;4.124;2023-06-14T08:27:44;24.04;74.71
19536;HTU21D;9913;51.168;4.124;2023-06-14T08:30:13;24.13;74.58
19536;HTU21D;9913;51.168;4.124;2023-06-14T08:32:42;24.28;76.92
19536;HTU21D;9913;51.168;4.124;2023-06-14T08:35:10;24.48;75.99
19536;HTU21D;9913;51.168;4.124;2023-06-14T08:37:44;24.50;74.20
19536;HTU21D;9913;51.168;4.124;2023-06-14T08:40:18;24.59;73.77
19536;HTU21D;9913;51.168;4.124;2023-06-14T08:42:51;24.76;72.32
19536;HTU21D;9913;51.168;4.124;2023-06-14T08:45:20;24.78;72.90
19536;HTU21D;9913;51.168;4.124;2023-06-14T08:47:53;24.90;74.30
19536;HTU21D;9913;51.168;4.124;2023-06-14T08:50:26;25.09;73.97
19536;HTU21D;9913;51.168;4.124;2023-06-14T08:53:00;25.14;72.72
19536;HTU21D;9913;51.168;4.124;2023-06-14T08:55:32;25.19;72.35
19536;HTU21D;9913;51.168;4.124;2023-06-14T08:58:07;25.10;71.90
19536;HTU21D;9913;51.168;4.124;2023-06-14T09:00:36;25.32;72.64
19536;HTU21D;9913;51.168;4.124;2023-06-14T09:03:06;25.01;71.61
19536;HTU21D;9913;51.168;4.124;2023-06-14T09:05:41;25.06;71.89
19536;HTU21D;9913;51.168;4.124;2023-06-14T09:08:12;25.24;72.97
19536;HTU21D;9913;51.168;4.124;2023-06-14T09:10:41;25.48;72.13
19536;HTU21D;9913;51.168;4.124;2023-06-14T09:13:09;25.42;74.06
19536;HTU21D;9913;51.168;4.124;2023-06-14T09:15:40;25.54;72.58
19536;HTU21D;9913;51.168;4.124;2023-06-14T09:18:11;25.57;72.67
19536;HTU21D;9913;51.168;4.124;2023-06-14T09:20:40;25.75;73.00
19536;HTU21D;9913;51.168;4.124;2023-06-14T09:23:09;25.65;72.31
19536;HTU21D;9913;51.168;4.124;2023-06-14T09:25:45;25.51;72.07
19536;HTU21D;9913;51.168;4.124;2023-06-14T09:28:16;25.38;71.50
19536;HTU21D;9913;51.168;4.124;2023-06-14T09:30:44;25.80;72.77
19536;HTU21D;9913;51.168;4.124;2023-06-14T09:33:17;25.77;72.71
19536;HTU21D;9913;51.168;4.124;2023-06-14T09:35:45;25.97;71.10
19536;HTU21D;9913;51.168;4.124;2023-06-14T09:38:15;26.12;71.41
19536;HTU21D;9913;51.168;4.124;2023-06-14T09:40:45;26.02;70.96
19536;HTU21D;9913;51.168;4.124;2023-06-14T09:43:13;26.13;71.96
19536;HTU21D;9913;51.168;4.124;2023-06-14T09:45:43;26.28;69.46
19536;HTU21D;9913;51.168;4.124;2023-06-14T09:48:18;26.32;70.52
19536;HTU21D;9913;51.168;4.124;2023-06-14T09:50:46;25.98;68.41
19536;HTU21D;9913;51.168;4.124;2023-06-14T09:53:21;25.79;67.71
19536;HTU21D;9913;51.168;4.124;2023-06-14T09:55:52;25.95;69.39
19536;HTU21D;9913;51.168;4.124;2023-06-14T09:58:26;26.36;67.81
19536;HTU21D;9913;51.168;4.124;2023-06-14T10:00:57;26.53;69.41
19536;HTU21D;9913;51.168;4.124;2023-06-14T10:03:28;26.37;66.02
19536;HTU21D;9913;51.168;4.124;2023-06-14T10:06:10;26.60;66.88
19536;HTU21D;9913;51.168;4.124;2023-06-14T10:08:42;26.84;66.53
19536;HTU21D;9913;51.168;4.124;2023-06-14T10:11:17;26.55;65.47
19536;HTU21D;9913;51.168;4.124;2023-06-14T10:13:45;26.84;65.01
19536;HTU21D;9913;51.168;4.124;2023-06-14T10:16:17;27.08;65.39
19536;HTU21D;9913;51.168;4.124;2023-06-14T10:18:51;27.06;64.32
19536;HTU21D;9913;51.168;4.124;2023-06-14T10:24:13;27.30;63.06
19536;HTU21D;9913;51.168;4.124;2023-06-14T10:26:56;26.92;65.35
19536;HTU21D;9913;51.168;4.124;2023-06-14T10:29:26;27.19;63.63
19536;HTU21D;9913;51.168;4.124;2023-06-14T10:32:00;27.29;64.56
19536;HTU21D;9913;51.168;4.124;2023-06-14T10:34:31;27.35;62.14
19536;HTU21D;9913;51.168;4.124;2023-06-14T10:37:04;27.56;63.16
19536;HTU21D;9913;51.168;4.124;2023-06-14T10:39:38;27.10;61.40
19536;HTU21D;9913;51.168;4.124;2023-06-14T10:42:13;27.46;60.83
19536;HTU21D;9913;51.168;4.124;2023-06-14T10:44:45;27.47;61.57
19536;HTU21D;9913;51.168;4.124;2023-06-14T10:47:27;27.90;63.27
19536;HTU21D;9913;51.168;4.124;2023-06-14T10:50:02;27.97;62.79
19536;HTU21D;9913;51.168;4.124;2023-06-14T10:52:33;27.66;62.40
19536;HTU21D;9913;51.168;4.124;2023-06-14T10:55:08;28.08;62.66
19536;HTU21D;9913;51.168;4.124;2023-06-14T10:57:43;27.95;62.75
19536;HTU21D;9913;51.168;4.124;2023-06-14T11:00:19;28.19;61.79
19536;HTU21D;9913;51.168;4.124;2023-06-14T11:05:54;27.71;62.22
19536;HTU21D;9913;51.168;4.124;2023-06-14T11:09:01;27.55;60.57
19536;HTU21D;9913;51.168;4.124;2023-06-14T11:11:34;27.82;61.60
19536;HTU21D;9913;51.168;4.124;2023-06-14T11:14:04;28.25;61.34
19536;HTU21D;9913;51.168;4.124;2023-06-14T11:16:33;28.08;58.74
19536;HTU21D;9913;51.168;4.124;2023-06-14T11:19:01;27.85;58.42
19536;HTU21D;9913;51.168;4.124;2023-06-14T11:21:32;27.49;58.94
19536;HTU21D;9913;51.168;4.124;2023-06-14T11:24:01;28.32;59.09
19536;HTU21D;9913;51.168;4.124;2023-06-14T11:26:30;28.60;58.79
19536;HTU21D;9913;51.168;4.124;2023-06-14T11:29:01;28.29;58.93
19536;HTU21D;9913;51.168;4.124;2023-06-14T11:31:31;27.89;59.41
19536;HTU21D;9913;51.168;4.124;2023-06-14T11:34:00;28.45;59.60
19536;HTU21D;9913;51.168;4.124;2023-06-14T11:36:33;28.55;59.91
19536;HTU21D;9913;51.168;4.124;2023-06-14T11:39:03;28.25;58.13
19536;HTU21D;9913;51.168;4.124;2023-06-14T11:41:36;28.83;60.12
19536;HTU21D;9913;51.168;4.124;2023-06-14T11:44:05;28.57;57.77
19536;HTU21D;9913;51.168;4.124;2023-06-14T11:46:35;28.31;57.43
19536;HTU21D;9913;51.168;4.124;2023-06-14T11:49:04;28.40;58.94
19536;HTU21D;9913;51.168;4.124;2023-06-14T11:51:36;28.57;58.70
19536;HTU21D;9913;51.168;4.124;2023-06-14T11:54:06;28.94;58.93
19536;HTU21D;9913;51.168;4.124;2023-06-14T11:56:36;28.69;59.26
19536;HTU21D;9913;51.168;4.124;2023-06-14T11:59:05;28.43;57.36
19536;HTU21D;9913;51.168;4.124;2023-06-14T12:01:38;28.78;56.43
19536;HTU21D;9913;51.168;4.124;2023-06-14T12:04:07;29.03;59.07
19536;HTU21D;9913;51.168;4.124;2023-06-14T12:06:36;28.90;57.99
19536;HTU21D;9913;51.168;4.124;2023-06-14T12:09:07;28.64;56.31
19536;HTU21D;9913;51.168;4.124;2023-06-14T12:11:40;29.17;60.12
19536;HTU21D;9913;51.168;4.124;2023-06-14T12:14:09;29.14;54.49
19536;HTU21D;9913;51.168;4.124;2023-06-14T12:16:40;29.18;55.05
19536;HTU21D;9913;51.168;4.124;2023-06-14T12:19:12;29.21;56.49
19536;HTU21D;9913;51.168;4.124;2023-06-14T12:21:42;29.23;54.52
19536;HTU21D;9913;51.168;4.124;2023-06-14T12:24:12;28.70;54.36
19536;HTU21D;9913;51.168;4.124;2023-06-14T12:26:41;28.85;54.69
19536;HTU21D;9913;51.168;4.124;2023-06-14T12:29:10;28.87;55.77
19536;HTU21D;9913;51.168;4.124;2023-06-14T12:31:41;29.28;55.87
19536;HTU21D;9913;51.168;4.124;2023-06-14T12:34:10;30.00;55.44
19536;HTU21D;9913;51.168;4.124;2023-06-14T12:36:38;29.35;56.61
19536;HTU21D;9913;51.168;4.124;2023-06-14T12:39:12;29.45;56.90
19536;HTU21D;9913;51.168;4.124;2023-06-14T12:41:40;29.00;55.98
19536;HTU21D;9913;51.168;4.124;2023-06-14T12:44:10;29.31;57.43
19536;HTU21D;9913;51.168;4.124;2023-06-14T12:46:38;29.02;56.20
19536;HTU21D;9913;51.168;4.124;2023-06-14T12:49:10;28.94;56.74
19536;HTU21D;9913;51.168;4.124;2023-06-14T12:51:39;28.76;55.55
19536;HTU21D;9913;51.168;4.124;2023-06-14T12:54:08;29.26;57.74
19536;HTU21D;9913;51.168;4.124;2023-06-14T12:56:36;29.50;56.93
19536;HTU21D;9913;51.168;4.124;2023-06-14T12:59:05;29.77;56.49
19536;HTU21D;9913;51.168;4.124;2023-06-14T13:01:34;29.01;55.56
19536;HTU21D;9913;51.168;4.124;2023-06-14T13:04:03;29.54;55.16
19536;HTU21D;9913;51.168;4.124;2023-06-14T13:06:33;29.72;57.24
19536;HTU21D;9913;51.168;4.124;2023-06-14T13:09:01;29.73;55.96
19536;HTU21D;9913;51.168;4.124;2023-06-14T13:11:30;29.68;54.90
19536;HTU21D;9913;51.168;4.124;2023-06-14T13:13:59;29.02;54.57
19536;HTU21D;9913;51.168;4.124;2023-06-14T13:16:43;29.83;55.61
19536;HTU21D;9913;51.168;4.124;2023-06-14T13:19:12;29.62;54.49
19536;HTU21D;9913;51.168;4.124;2023-06-14T13:21:41;29.68;52.00
19536;HTU21D;9913;51.168;4.124;2023-06-14T13:24:10;29.41;56.37
19536;HTU21D;9913;51.168;4.124;2023-06-14T13:26:38;29.52;54.07
19536;HTU21D;9913;51.168;4.124;2023-06-14T13:29:07;28.92;53.36
19536;HTU21D;9913;51.168;4.124;2023-06-14T13:31:35;29.22;53.39
19536;HTU21D;9913;51.168;4.124;2023-06-14T13:34:03;29.57;51.76
19536;HTU21D;9913;51.168;4.124;2023-06-14T13:36:32;29.22;52.78
19536;HTU21D;9913;51.168;4.124;2023-06-14T13:39:02;29.96;53.27
19536;HTU21D;9913;51.168;4.124;2023-06-14T13:41:31;29.87;52.87
19536;HTU21D;9913;51.168;4.124;2023-06-14T13:44:02;29.54;51.59
19536;HTU21D;9913;51.168;4.124;2023-06-14T13:46:31;29.65;50.57
19536;HTU21D;9913;51.168;4.124;2023-06-14T13:49:00;29.51;51.57
19536;HTU21D;9913;51.168;4.124;2023-06-14T13:51:29;29.66;51.09
19536;HTU21D;9913;51.168;4.124;2023-06-14T13:53:57;29.60;51.14
19536;HTU21D;9913;51.168;4.124;2023-06-14T13:56:27;29.91;51.54
19536;HTU21D;9913;51.168;4.124;2023-06-14T13:58:55;30.66;51.58
19536;HTU21D;9913;51.168;4.124;2023-06-14T14:01:24;30.57;49.54
19536;HTU21D;9913;51.168;4.124;2023-06-14T14:03:53;29.98;49.67
19536;HTU21D;9913;51.168;4.124;2023-06-14T14:06:22;30.24;49.12
19536;HTU21D;9913;51.168;4.124;2023-06-14T14:08:50;30.30;49.18
19536;HTU21D;9913;51.168;4.124;2023-06-14T14:11:19;30.78;48.55
19536;HTU21D;9913;51.168;4.124;2023-06-14T14:13:49;30.50;48.90
19536;HTU21D;9913;51.168;4.124;2023-06-14T14:16:18;30.22;48.15
19536;HTU21D;9913;51.168;4.124;2023-06-14T14:18:46;30.78;50.34
19536;HTU21D;9913;51.168;4.124;2023-06-14T14:21:15;31.31;47.25
19536;HTU21D;9913;51.168;4.124;2023-06-14T14:23:43;31.11;48.32
19536;HTU21D;9913;51.168;4.124;2023-06-14T14:26:12;30.68;47.41
19536;HTU21D;9913;51.168;4.124;2023-06-14T14:28:40;31.36;46.54
19536;HTU21D;9913;51.168;4.124;2023-06-14T14:31:10;31.73;47.64
19536;HTU21D;9913;51.168;4.124;2023-06-14T14:33:38;32.73;45.12
19536;HTU21D;9913;51.168;4.124;2023-06-14T14:36:07;33.03;44.84
19536;HTU21D;9913;51.168;4.124;2023-06-14T14:38:35;33.16;44.53
19536;HTU21D;9913;51.168;4.124;2023-06-14T14:41:03;33.43;44.54
19536;HTU21D;9913;51.168;4.124;2023-06-14T14:43:32;32.53;45.46
19536;HTU21D;9913;51.168;4.124;2023-06-14T14:46:00;32.83;45.99
19536;HTU21D;9913;51.168;4.124;2023-06-14T14:48:30;31.19;46.12
19536;HTU21D;9913;51.168;4.124;2023-06-14T14:50:58;32.02;46.39
19536;HTU21D;9913;51.168;4.124;2023-06-14T14:53:26;30.80;44.27
19536;HTU21D;9913;51.168;4.124;2023-06-14T14:55:55;32.33;46.81
19536;HTU21D;9913;51.168;4.124;2023-06-14T14:58:23;33.40;44.03
19536;HTU21D;9913;51.168;4.124;2023-06-14T15:00:52;33.27;43.26
19536;HTU21D;9913;51.168;4.124;2023-06-14T15:03:20;33.81;43.03
19536;HTU21D;9913;51.168;4.124;2023-06-14T15:05:50;33.86;44.85
19536;HTU21D;9913;51.168;4.124;2023-06-14T15:08:18;33.92;44.78
19536;HTU21D;9913;51.168;4.124;2023-06-14T15:10:46;33.09;44.93
19536;HTU21D;9913;51.168;4.124;2023-06-14T15:13:15;34.00;44.77
19536;HTU21D;9913;51.168;4.124;2023-06-14T15:15:43;34.32;42.46
19536;HTU21D;9913;51.168;4.124;2023-06-14T15:18:12;34.66;42.86
19536;HTU21D;9913;51.168;4.124;2023-06-14T15:20:41;34.10;42.59
19536;HTU21D;9913;51.168;4.124;2023-06-14T15:23:11;34.15;44.39
19536;HTU21D;9913;51.168;4.124;2023-06-14T15:25:41;32.64;43.74
19536;HTU21D;9913;51.168;4.124;2023-06-14T15:28:10;34.67;42.13
19536;HTU21D;9913;51.168;4.124;2023-06-14T15:30:38;33.65;43.59
19536;HTU21D;9913;51.168;4.124;2023-06-14T15:33:06;34.99;44.62
19536;HTU21D;9913;51.168;4.124;2023-06-14T15:35:35;33.70;43.02
19536;HTU21D;9913;51.168;4.124;2023-06-14T15:38:07;34.30;44.32
19536;HTU21D;9913;51.168;4.124;2023-06-14T15:40:36;34.06;42.84
19536;HTU21D;9913;51.168;4.124;2023-06-14T15:43:07;33.95;42.39
19536;HTU21D;9913;51.168;4.124;2023-06-14T15:45:35;32.92;44.22
19536;HTU21D;9913;51.168;4.124;2023-06-14T15:48:05;33.49;43.81
19536;HTU21D;9913;51.168;4.124;2023-06-14T15:50:33;32.77;43.93
19536;HTU21D;9913;51.168;4.124;2023-06-14T15:53:03;33.29;45.28